Terminal Aerodrome Forecast
Issued by NWS Dodge City, KS

Home | Current Version | Previous Version | Graphics & Text | Print | Product List | Glossary On
Versions: 1 2 3 4 5 6 7 8 9 10 11 12 13
000
FTUS43 KDDC 031123
TAFDDC
TAF
KDDC 031123Z 0312/0412 VRB06KT 3SM -SN OVC010
      TEMPO 0312/0316 1SM -SN BKN004
     FM031800 10007KT P6SM OVC003
     FM040000 VRB06KT P6SM BKN003
     FM040300 VRB06KT P6SM SKC=

USA.gov is the U.S. government's official web portal to all federal, state and local government web resources and services.